createdAt,value
2023-03-06T00:00:51.323Z,38.53
2023-03-06T00:03:19.088Z,36.25
2023-03-06T00:05:48.266Z,36.55
2023-03-06T00:08:16.617Z,39.28
2023-03-06T00:10:44.521Z,35.22
2023-03-06T00:13:14.685Z,35.75
2023-03-06T00:15:43.418Z,37.20
2023-03-06T00:18:11.100Z,37.73
2023-03-06T00:20:41.017Z,33.45
2023-03-06T00:23:11.066Z,38.13
2023-03-06T00:25:39.115Z,36.92
2023-03-06T00:28:06.975Z,34.45
2023-03-06T00:30:34.914Z,35.05
2023-03-06T00:33:02.580Z,36.63
2023-03-06T00:35:30.297Z,35.67
2023-03-06T00:37:59.987Z,37.47
2023-03-06T00:42:56.566Z,35.90
2023-03-06T00:45:24.663Z,34.33
2023-03-06T00:47:52.355Z,38.05
2023-03-06T00:50:20.091Z,34.08
2023-03-06T00:52:47.987Z,36.25
2023-03-06T00:55:15.707Z,33.63
2023-03-06T00:57:44.743Z,34.38
2023-03-06T01:00:14.199Z,38.13
2023-03-06T01:02:42.342Z,36.97
2023-03-06T01:05:10.864Z,34.55
2023-03-06T01:07:38.878Z,37.63
2023-03-06T01:10:07.869Z,35.63
2023-03-06T01:12:35.535Z,38.25
2023-03-06T01:15:05.563Z,34.95
2023-03-06T01:17:33.301Z,33.30
2023-03-06T01:20:00.975Z,35.83
2023-03-06T01:22:28.945Z,38.78
2023-03-06T01:24:56.613Z,35.85
2023-03-06T01:27:24.385Z,35.88
2023-03-06T01:29:52.211Z,38.58
2023-03-06T01:32:21.617Z,38.13
2023-03-06T01:34:49.652Z,36.00
2023-03-06T01:37:17.664Z,35.90
2023-03-06T01:39:45.554Z,37.72
2023-03-06T01:42:13.312Z,35.30
2023-03-06T01:45:00.040Z,36.05
2023-03-06T01:47:29.397Z,37.03
2023-03-06T01:49:58.758Z,38.88
2023-03-06T01:52:30.580Z,34.90
2023-03-06T01:55:03.460Z,35.95
2023-03-06T01:57:35.719Z,36.67
2023-03-06T02:00:08.181Z,38.55
2023-03-06T02:02:38.428Z,38.90
2023-03-06T02:05:07.258Z,38.53
2023-03-06T02:07:35.865Z,40.47
2023-03-06T02:10:04.246Z,35.47
2023-03-06T02:12:32.313Z,40.72
2023-03-06T02:15:00.254Z,36.72
2023-03-06T02:17:29.024Z,38.72
2023-03-06T02:20:04.712Z,39.20
2023-03-06T02:22:38.823Z,37.42
2023-03-06T02:25:15.034Z,38.90
2023-03-06T02:27:44.539Z,42.65
2023-03-06T02:30:17.522Z,38.47
2023-03-06T02:32:45.546Z,37.10
2023-03-06T02:35:19.775Z,38.53
2023-03-06T02:37:48.301Z,41.75
2023-03-06T02:40:18.252Z,38.92
2023-03-06T02:42:51.998Z,41.08
2023-03-06T02:45:27.064Z,39.75
2023-03-06T02:47:55.174Z,41.08
2023-03-06T02:50:22.846Z,40.97
2023-03-06T02:52:50.526Z,41.08
2023-03-06T02:55:18.600Z,44.00
2023-03-06T02:57:46.477Z,40.33
2023-03-06T03:00:17.190Z,46.53
2023-03-06T03:02:45.664Z,44.13
2023-03-06T03:05:13.963Z,39.63
2023-03-06T03:07:41.648Z,44.30
2023-03-06T03:10:11.036Z,37.72
2023-03-06T03:12:38.789Z,40.42
2023-03-06T03:15:07.587Z,43.45
2023-03-06T03:17:38.744Z,44.13
2023-03-06T03:20:09.399Z,44.35
2023-03-06T03:22:37.078Z,42.20
2023-03-06T03:25:05.584Z,42.03
2023-03-06T03:27:33.277Z,42.47
2023-03-06T03:30:01.493Z,42.25
2023-03-06T03:32:29.626Z,39.83
2023-03-06T03:34:58.662Z,43.92
2023-03-06T03:37:26.341Z,46.10
2023-03-06T03:39:54.362Z,42.08
2023-03-06T03:42:21.995Z,44.30
2023-03-06T03:44:49.693Z,43.03
2023-03-06T03:47:17.822Z,44.35
2023-03-06T03:49:45.697Z,44.28
2023-03-06T03:52:14.734Z,42.65
2023-03-06T03:54:43.034Z,44.83
2023-03-06T03:57:10.684Z,42.85
2023-03-06T03:59:38.346Z,42.97
2023-03-06T04:02:06.536Z,46.88
2023-03-06T04:04:34.230Z,49.28
2023-03-06T04:07:01.928Z,49.60
2023-03-06T04:09:31.332Z,44.45
2023-03-06T04:11:58.989Z,49.17
2023-03-06T04:14:26.812Z,45.45
2023-03-06T04:16:54.900Z,41.58
2023-03-06T04:19:22.581Z,43.30
2023-03-06T04:21:50.372Z,47.00
2023-03-06T04:24:18.332Z,43.40
2023-03-06T04:26:47.359Z,42.70
2023-03-06T04:29:15.049Z,40.78
2023-03-06T04:31:43.205Z,45.35
2023-03-06T04:34:10.862Z,44.28
2023-03-06T04:36:38.573Z,42.78
2023-03-06T04:39:06.568Z,44.45
2023-03-06T04:41:34.319Z,45.08
2023-03-06T04:44:03.728Z,42.20
2023-03-06T04:46:31.668Z,46.88
2023-03-06T04:48:59.416Z,42.60
2023-03-06T04:51:27.653Z,40.78
2023-03-06T04:53:55.316Z,40.72
2023-03-06T04:56:23.262Z,41.88
2023-03-06T04:58:51.296Z,44.20
2023-03-06T05:01:20.543Z,43.13
2023-03-06T05:03:49.993Z,41.28
2023-03-06T05:06:17.655Z,43.22
2023-03-06T05:08:45.353Z,43.25
2023-03-06T05:11:13.365Z,42.30
2023-03-06T05:13:41.025Z,41.47
2023-03-06T05:16:09.893Z,42.20
2023-03-06T05:18:39.521Z,40.00
2023-03-06T05:21:07.988Z,42.10
2023-03-06T05:23:38.400Z,41.38
2023-03-06T05:26:08.670Z,40.10
2023-03-06T05:28:36.892Z,40.30
2023-03-06T05:31:04.759Z,40.70
2023-03-06T05:33:33.443Z,39.65
2023-03-06T05:36:02.492Z,41.40
2023-03-06T05:38:30.369Z,42.95
2023-03-06T05:40:58.282Z,42.63
2023-03-06T05:43:25.955Z,41.10
2023-03-06T05:46:01.742Z,23.45
2023-03-06T05:48:29.435Z,31.30
2023-03-06T05:50:57.996Z,41.28
2023-03-06T05:53:28.030Z,40.58
2023-03-06T05:55:59.773Z,38.42
2023-03-06T05:58:27.522Z,38.72
2023-03-06T06:00:55.546Z,38.05
2023-03-06T06:03:23.855Z,37.03
2023-03-06T06:05:52.111Z,36.47
2023-03-06T06:08:20.274Z,40.50
2023-03-06T06:10:51.010Z,39.72
2023-03-06T06:13:20.777Z,41.28
2023-03-06T06:15:48.467Z,37.88
2023-03-06T06:18:16.194Z,41.78
2023-03-06T06:20:44.096Z,40.63
2023-03-06T06:23:12.357Z,43.45
2023-03-06T06:25:40.288Z,42.00
2023-03-06T06:28:09.501Z,42.53
2023-03-06T06:30:37.223Z,40.72
2023-03-06T06:33:04.893Z,37.05
2023-03-06T06:35:37.097Z,39.05
2023-03-06T06:38:04.887Z,40.35
2023-03-06T06:40:32.560Z,44.30
2023-03-06T06:43:00.516Z,45.40
2023-03-06T06:45:29.551Z,40.28
2023-03-06T06:47:57.410Z,46.70
2023-03-06T06:50:25.251Z,40.90
2023-03-06T06:52:52.940Z,41.13
2023-03-06T06:55:20.612Z,45.00
2023-03-06T06:57:48.592Z,45.83
2023-03-06T07:00:17.903Z,45.65
2023-03-06T07:02:49.461Z,41.05
2023-03-06T07:05:17.296Z,43.33
2023-03-06T07:07:44.997Z,43.75
2023-03-06T07:10:15.550Z,42.50
2023-03-06T07:12:43.471Z,39.90
2023-03-06T07:15:14.524Z,42.40
2023-03-06T07:17:42.395Z,44.80
2023-03-06T07:20:12.878Z,45.65
2023-03-06T07:22:50.436Z,43.58
2023-03-06T07:25:19.094Z,47.38
2023-03-06T07:27:52.790Z,42.67
2023-03-06T07:30:21.772Z,47.88
2023-03-06T07:32:49.464Z,46.22
2023-03-06T07:35:20.499Z,47.58
2023-03-06T07:37:48.727Z,42.70
2023-03-06T07:40:16.410Z,50.75
2023-03-06T07:42:44.176Z,48.00
2023-03-06T07:45:13.115Z,47.90
2023-03-06T07:47:41.218Z,44.05
2023-03-06T07:50:09.756Z,45.65
2023-03-06T07:52:39.169Z,48.88
2023-03-06T07:55:07.940Z,47.75
2023-03-06T07:57:35.612Z,44.93
2023-03-06T08:00:03.885Z,44.65
2023-03-06T08:02:31.564Z,46.53
2023-03-06T08:04:59.267Z,47.90
2023-03-06T08:07:27.507Z,49.08
2023-03-06T08:09:56.543Z,45.72
2023-03-06T08:12:24.251Z,49.13
2023-03-06T08:14:52.521Z,49.15
2023-03-06T08:17:20.249Z,49.42
2023-03-06T08:19:47.902Z,48.72
2023-03-06T08:22:16.106Z,45.83
2023-03-06T08:24:43.748Z,47.40
2023-03-06T08:27:12.768Z,49.50
2023-03-06T08:29:40.621Z,48.53
2023-03-06T08:32:12.617Z,46.33
2023-03-06T08:34:43.038Z,45.30
2023-03-06T08:37:10.713Z,44.30
2023-03-06T08:39:38.379Z,44.58
2023-03-06T08:42:06.613Z,42.45
2023-03-06T08:44:35.639Z,39.83
2023-03-06T08:47:04.466Z,46.42
2023-03-06T08:49:32.169Z,39.63
2023-03-06T08:51:59.821Z,40.38
2023-03-06T08:54:27.456Z,39.90
2023-03-06T08:56:55.830Z,38.45
2023-03-06T08:59:24.777Z,40.05
2023-03-06T09:01:54.213Z,41.72
2023-03-06T09:04:22.888Z,43.75
2023-03-06T09:06:50.809Z,42.20
2023-03-06T09:09:18.650Z,42.33
2023-03-06T09:11:46.498Z,38.83
2023-03-06T09:14:14.458Z,44.30
2023-03-06T09:16:42.199Z,40.30
2023-03-06T09:19:11.991Z,39.05
2023-03-06T09:21:39.740Z,41.88
2023-03-06T09:24:07.898Z,41.13
2023-03-06T09:26:45.525Z,48.60
2023-03-06T09:29:16.263Z,39.85
2023-03-06T09:31:44.837Z,40.95
2023-03-06T09:34:14.117Z,43.75
2023-03-06T09:36:55.263Z,41.35
2023-03-06T09:39:25.884Z,39.00
2023-03-06T09:41:54.469Z,41.08
2023-03-06T09:44:26.491Z,40.10
2023-03-06T09:47:24.030Z,45.30
2023-03-06T09:50:13.244Z,38.60
2023-03-06T09:52:47.659Z,44.25
2023-03-06T09:55:20.467Z,43.70
2023-03-06T09:57:55.825Z,42.35
2023-03-06T10:00:30.404Z,36.67
2023-03-06T10:03:07.033Z,39.90
2023-03-06T10:05:42.011Z,40.30
2023-03-06T10:08:21.466Z,39.95
2023-03-06T10:10:55.713Z,41.55
2023-03-06T10:13:29.866Z,40.40
2023-03-06T10:16:08.231Z,37.33
2023-03-06T10:19:13.160Z,37.55
2023-03-06T10:21:54.069Z,37.15
2023-03-06T10:24:32.237Z,38.00
2023-03-06T10:27:04.699Z,36.97
2023-03-06T10:29:56.371Z,38.60
2023-03-06T10:32:47.508Z,37.75
2023-03-06T10:35:20.616Z,37.63
2023-03-06T10:37:51.194Z,41.03
2023-03-06T10:40:35.910Z,39.40
2023-03-06T10:43:11.427Z,37.92
2023-03-06T10:45:49.957Z,40.20
2023-03-06T10:48:22.591Z,35.63
2023-03-06T10:50:51.114Z,41.70
2023-03-06T10:53:26.635Z,36.10
2023-03-06T10:55:57.045Z,36.35
2023-03-06T10:58:28.441Z,34.53
2023-03-06T11:01:08.343Z,39.63
2023-03-06T11:03:37.224Z,34.13
2023-03-06T11:06:11.565Z,32.10
2023-03-06T11:08:44.015Z,34.10
2023-03-06T11:11:15.908Z,34.13
2023-03-06T11:13:59.168Z,34.53
2023-03-06T11:16:30.631Z,33.25
2023-03-06T11:19:00.787Z,33.42
2023-03-06T11:21:31.764Z,32.17
2023-03-06T11:24:08.017Z,34.00
2023-03-06T11:26:44.928Z,33.58
2023-03-06T11:29:38.718Z,29.65
2023-03-06T11:32:13.747Z,29.60
2023-03-06T11:34:50.597Z,28.02
2023-03-06T11:37:30.546Z,31.58
2023-03-06T11:40:08.387Z,35.20
2023-03-06T11:42:40.803Z,29.60
2023-03-06T11:45:21.207Z,29.25
2023-03-06T11:47:54.356Z,29.98
2023-03-06T11:50:31.322Z,28.63
2023-03-06T11:53:01.793Z,27.15
2023-03-06T11:55:46.109Z,29.17
2023-03-06T11:58:40.892Z,29.05
2023-03-06T12:01:14.701Z,27.83
2023-03-06T12:04:21.377Z,30.70
2023-03-06T12:06:57.900Z,32.45
2023-03-06T12:09:33.359Z,36.42
2023-03-06T12:15:08.612Z,35.30
2023-03-06T12:17:55.125Z,32.53
2023-03-06T12:20:49.765Z,31.55
2023-03-06T12:23:32.867Z,32.40
2023-03-06T12:26:07.760Z,32.00
2023-03-06T12:28:53.986Z,31.85
2023-03-06T12:31:47.566Z,28.10
2023-03-06T12:34:27.198Z,26.88
2023-03-06T12:39:47.062Z,26.38
2023-03-06T12:42:36.274Z,26.90
2023-03-06T12:45:28.990Z,29.60
2023-03-06T12:47:58.304Z,30.02
2023-03-06T12:50:29.331Z,30.98
2023-03-06T12:53:00.167Z,29.50
2023-03-06T12:55:28.533Z,33.92
2023-03-06T12:57:56.958Z,35.97
2023-03-06T13:01:06.065Z,38.38
2023-03-06T13:03:52.970Z,31.88
2023-03-06T13:06:36.614Z,37.40
2023-03-06T13:09:19.671Z,33.60
2023-03-06T13:12:16.567Z,38.45
2023-03-06T13:14:59.306Z,37.35
2023-03-06T13:17:37.962Z,36.15
2023-03-06T13:20:37.932Z,40.47
2023-03-06T13:23:42.860Z,34.10
2023-03-06T13:26:33.448Z,39.15
2023-03-06T13:29:02.088Z,37.15
2023-03-06T13:31:51.722Z,41.03
2023-03-06T13:37:54.685Z,38.72
2023-03-06T13:40:35.682Z,34.97
2023-03-06T13:43:27.543Z,39.30
2023-03-06T13:45:55.592Z,35.35
2023-03-06T13:48:44.194Z,39.83
2023-03-06T13:51:23.333Z,34.72
2023-03-06T13:54:28.524Z,36.28
2023-03-06T13:57:43.898Z,34.33
2023-03-06T14:00:48.999Z,36.03
2023-03-06T14:03:58.527Z,35.60
2023-03-06T14:09:23.671Z,33.10
2023-03-06T14:11:55.706Z,30.25
2023-03-06T14:14:33.618Z,32.90
2023-03-06T14:17:05.827Z,28.58
2023-03-06T14:19:38.650Z,32.15
2023-03-06T14:22:14.784Z,30.77
2023-03-06T14:24:52.964Z,29.98
2023-03-06T14:27:21.772Z,31.40
2023-03-06T14:29:49.914Z,31.67
2023-03-06T14:32:23.745Z,30.10
2023-03-06T14:34:51.635Z,28.23
2023-03-06T14:37:22.750Z,33.08
2023-03-06T14:39:50.836Z,29.80
2023-03-06T14:42:20.956Z,34.58
2023-03-06T14:44:50.097Z,28.08
2023-03-06T14:47:29.643Z,28.83
2023-03-06T14:50:21.529Z,33.78
2023-03-06T14:52:49.942Z,28.65
2023-03-06T14:55:20.828Z,25.95
2023-03-06T14:57:52.244Z,27.85
2023-03-06T15:00:24.249Z,25.70
2023-03-06T15:02:57.590Z,26.88
2023-03-06T15:05:28.993Z,27.27
2023-03-06T15:08:02.868Z,28.33
2023-03-06T15:10:33.195Z,31.98
2023-03-06T15:13:10.523Z,31.52
2023-03-06T15:15:38.437Z,27.30
2023-03-06T15:18:29.475Z,28.92
2023-03-06T15:21:08.739Z,28.60
2023-03-06T15:23:39.240Z,28.02
2023-03-06T15:26:23.905Z,26.08
2023-03-06T15:29:08.967Z,26.08
2023-03-06T15:31:38.994Z,29.17
2023-03-06T15:34:23.879Z,27.77
2023-03-06T15:36:56.787Z,25.20
2023-03-06T15:39:37.230Z,27.90
2023-03-06T15:42:19.253Z,23.98
2023-03-06T15:44:53.233Z,24.30
2023-03-06T15:47:22.044Z,20.40
2023-03-06T15:52:42.496Z,22.13
2023-03-06T15:55:13.643Z,20.95
2023-03-06T15:57:49.385Z,21.38
2023-03-06T16:00:27.961Z,20.63
2023-03-06T16:02:56.807Z,20.73
2023-03-06T16:05:27.596Z,22.27
2023-03-06T16:07:55.881Z,20.35
2023-03-06T16:10:27.599Z,18.15
2023-03-06T16:12:57.438Z,17.02
2023-03-06T16:15:29.633Z,17.75
2023-03-06T16:17:57.937Z,18.00
2023-03-06T16:20:29.845Z,21.13
2023-03-06T16:22:58.027Z,19.20
2023-03-06T16:25:28.724Z,19.33
2023-03-06T16:27:59.767Z,18.77
2023-03-06T16:30:30.109Z,19.52
2023-03-06T16:32:58.726Z,20.25
2023-03-06T16:35:28.812Z,22.25
2023-03-06T16:37:57.040Z,21.50
2023-03-06T16:40:27.123Z,22.83
2023-03-06T16:42:56.041Z,20.30
2023-03-06T16:45:25.620Z,18.80
2023-03-06T16:47:54.397Z,20.40
2023-03-06T16:50:25.704Z,21.80
2023-03-06T16:53:09.908Z,21.73
2023-03-06T16:55:38.267Z,26.00
2023-03-06T16:58:06.301Z,22.25
2023-03-06T17:00:34.267Z,25.63
2023-03-06T17:03:03.360Z,23.40
2023-03-06T17:05:34.290Z,24.27
2023-03-06T17:08:02.495Z,25.73
2023-03-06T17:10:33.416Z,22.80
2023-03-06T17:13:01.568Z,22.45
2023-03-06T17:15:29.589Z,22.48
2023-03-06T17:17:58.458Z,24.67
2023-03-06T17:20:26.438Z,24.45
2023-03-06T17:22:54.569Z,27.30
2023-03-06T17:25:23.057Z,21.15
2023-03-06T17:27:52.475Z,21.67
2023-03-06T17:30:20.675Z,20.73
2023-03-06T17:32:49.305Z,25.50
2023-03-06T17:35:17.498Z,22.27
2023-03-06T17:37:45.581Z,23.45
2023-03-06T17:40:16.270Z,21.25
2023-03-06T17:42:44.355Z,21.27
2023-03-06T17:45:13.920Z,22.98
2023-03-06T17:47:42.621Z,23.23
2023-03-06T17:50:12.025Z,21.38
2023-03-06T17:52:40.060Z,21.55
2023-03-06T17:55:09.619Z,22.63
2023-03-06T17:57:37.706Z,23.00
2023-03-06T18:00:07.154Z,25.08
2023-03-06T18:02:37.402Z,21.80
2023-03-06T18:05:05.967Z,21.85
2023-03-06T18:07:34.051Z,23.98
2023-03-06T18:10:02.585Z,25.55
2023-03-06T18:12:30.631Z,23.02
2023-03-06T18:14:58.685Z,30.25
2023-03-06T18:17:27.398Z,25.17
2023-03-06T18:19:57.088Z,25.33
2023-03-06T18:22:25.223Z,23.38
2023-03-06T18:24:53.529Z,24.95
2023-03-06T18:27:21.953Z,25.90
2023-03-06T18:29:52.215Z,31.48
2023-03-06T18:32:20.530Z,27.52
2023-03-06T18:34:50.678Z,24.45
2023-03-06T18:37:20.453Z,21.85
2023-03-06T18:39:48.646Z,23.40
2023-03-06T18:42:16.936Z,19.98
2023-03-06T18:44:48.023Z,22.33
2023-03-06T18:47:16.456Z,24.70
2023-03-06T18:49:46.219Z,26.48
2023-03-06T18:52:14.579Z,19.75
2023-03-06T18:54:44.087Z,22.00
2023-03-06T18:57:12.370Z,21.17
2023-03-06T18:59:40.941Z,21.25
2023-03-06T19:02:09.574Z,21.60
2023-03-06T19:04:38.388Z,19.25
2023-03-06T19:07:06.916Z,18.50
2023-03-06T19:09:35.031Z,18.63
2023-03-06T19:12:04.892Z,17.40
2023-03-06T19:14:33.106Z,18.30
2023-03-06T19:17:01.913Z,19.90
2023-03-06T19:19:29.903Z,21.08
2023-03-06T19:21:59.445Z,20.98
2023-03-06T19:24:27.791Z,17.38
2023-03-06T19:26:55.545Z,29.63
2023-03-06T19:29:25.530Z,19.08
2023-03-06T19:31:53.293Z,16.17
2023-03-06T19:34:21.529Z,20.25
2023-03-06T19:36:52.150Z,20.38
2023-03-06T19:39:20.215Z,23.00
2023-03-06T19:41:48.752Z,17.65
2023-03-06T19:44:18.101Z,20.35
2023-03-06T19:46:47.574Z,17.85
2023-03-06T19:49:18.708Z,21.63
2023-03-06T19:51:47.053Z,18.73
2023-03-06T19:54:15.535Z,18.42
2023-03-06T19:56:44.230Z,19.08
2023-03-06T19:59:12.325Z,25.10
2023-03-06T20:01:40.662Z,17.05
2023-03-06T20:04:10.850Z,15.35
2023-03-06T20:06:39.194Z,19.20
2023-03-06T20:09:09.493Z,15.82
2023-03-06T20:11:37.784Z,19.88
2023-03-06T20:14:07.743Z,20.50
2023-03-06T20:16:37.893Z,22.70
2023-03-06T20:19:07.142Z,14.27
2023-03-06T20:21:38.512Z,18.73
2023-03-06T20:24:07.626Z,16.52
2023-03-06T20:26:36.999Z,19.85
2023-03-06T20:29:06.141Z,16.58
2023-03-06T20:31:34.666Z,15.93
2023-03-06T20:34:02.937Z,17.33
2023-03-06T20:36:32.928Z,14.43
2023-03-06T20:39:03.936Z,24.30
2023-03-06T20:41:33.145Z,17.85
2023-03-06T20:44:01.707Z,18.73
2023-03-06T20:46:30.375Z,15.82
2023-03-06T20:49:00.212Z,17.17
2023-03-06T20:51:30.265Z,16.67
2023-03-06T20:53:59.199Z,12.40
2023-03-06T20:56:31.191Z,12.50
2023-03-06T20:58:59.674Z,12.20
2023-03-06T21:01:29.072Z,13.35
2023-03-06T21:03:58.584Z,12.38
2023-03-06T21:06:29.015Z,12.20
2023-03-06T21:08:58.084Z,12.45
2023-03-06T21:11:26.907Z,15.25
2023-03-06T21:13:56.556Z,15.50
2023-03-06T21:18:55.807Z,12.98
2023-03-06T21:21:25.886Z,12.70
2023-03-06T21:23:53.813Z,12.88
2023-03-06T21:26:23.448Z,14.68
2023-03-06T21:31:22.384Z,12.90
2023-03-06T21:33:51.483Z,13.23
2023-03-06T21:36:21.479Z,15.85
2023-03-06T21:38:51.497Z,15.68
2023-03-06T21:41:21.800Z,16.02
2023-03-06T21:43:49.911Z,12.52
2023-03-06T21:46:18.141Z,12.10
2023-03-06T21:48:47.339Z,12.18
2023-03-06T21:51:18.645Z,16.60
2023-03-06T21:53:48.376Z,13.80
2023-03-06T21:56:18.844Z,13.40
2023-03-06T21:58:46.793Z,13.02
2023-03-06T22:01:18.000Z,14.23
2023-03-06T22:03:47.717Z,14.57
2023-03-06T22:06:18.156Z,11.88
2023-03-06T22:08:46.804Z,17.35
2023-03-06T22:11:17.011Z,13.25
2023-03-06T22:13:45.341Z,12.27
2023-03-06T22:16:13.880Z,13.63
2023-03-06T22:18:46.209Z,15.00
2023-03-06T22:21:17.676Z,14.57
2023-03-06T22:23:50.099Z,12.65
2023-03-06T22:26:18.873Z,12.98
2023-03-06T22:28:46.855Z,13.63
2023-03-06T22:31:18.234Z,13.23
2023-03-06T22:33:46.428Z,12.85
2023-03-06T22:36:17.164Z,15.00
2023-03-06T22:38:47.666Z,13.75
2023-03-06T22:41:17.996Z,15.35
2023-03-06T22:43:46.039Z,12.25
2023-03-06T22:46:16.433Z,13.00
2023-03-06T22:48:44.890Z,14.50
2023-03-06T22:51:16.478Z,13.73
2023-03-06T22:53:45.160Z,13.75
2023-03-06T22:56:16.576Z,12.60
2023-03-06T22:58:44.990Z,13.63
2023-03-06T23:01:15.987Z,11.35
2023-03-06T23:03:46.660Z,11.80
2023-03-06T23:06:17.869Z,10.70
2023-03-06T23:08:50.915Z,12.18
2023-03-06T23:11:20.154Z,12.00
2023-03-06T23:13:48.280Z,10.60
2023-03-06T23:16:16.990Z,12.35
2023-03-06T23:18:45.131Z,9.67
2023-03-06T23:21:17.514Z,10.27
2023-03-06T23:23:49.488Z,10.23
2023-03-06T23:26:19.720Z,10.93
2023-03-06T23:28:48.175Z,10.93
2023-03-06T23:31:18.401Z,10.50
2023-03-06T23:33:47.197Z,9.50
2023-03-06T23:36:18.466Z,9.97
2023-03-06T23:38:47.603Z,8.98
2023-03-06T23:41:18.134Z,11.07
2023-03-06T23:43:47.317Z,8.25
2023-03-06T23:46:16.207Z,8.43
2023-03-06T23:48:45.405Z,7.78
2023-03-06T23:51:18.139Z,8.75
2023-03-06T23:53:47.386Z,9.18
2023-03-06T23:56:15.707Z,9.32
2023-03-06T23:58:44.445Z,8.40
